Terminal Aerodrome Forecast
Issued by NWS

Home | Current Version | Previous Version | Text Only | Print | Product List | Glossary Off
Versions: 1 2 3 4 5 6 7 8 9 10 11 12 13 14 15 16 17 18 19 20

000
FTUS43 KGRB 231736
TAFRHI
TAF
KRHI 231736Z 2318/2418 06006KT P6SM VCSH OVC040
     FM232200 04006KT P6SM VCSH OVC026
     FM240200 04004KT P6SM OVC014
     FM240900 03005KT P6SM OVC008
     FM241400 05007G14KT P6SM BKN014
     FM241700 05008G15KT P6SM BKN020=

USA.gov is the U.S. government's official web portal to all federal, state and local government web resources and services.